sensor_id;sensor_type;location;lat;lon;timestamp;P1;durP1;ratioP1;P2;durP2;ratioP2
70725;SDS011;58304;53.104;6.022;2022-09-12T00:01:20;13.35;;;9.43;;
70725;SDS011;58304;53.104;6.022;2022-09-12T00:03:48;12.25;;;9.75;;
70725;SDS011;58304;53.104;6.022;2022-09-12T00:06:17;13.88;;;10.15;;
70725;SDS011;58304;53.104;6.022;2022-09-12T00:08:47;13.70;;;9.80;;
70725;SDS011;58304;53.104;6.022;2022-09-12T00:11:13;14.88;;;10.10;;
70725;SDS011;58304;53.104;6.022;2022-09-12T00:13:40;13.50;;;9.27;;
70725;SDS011;58304;53.104;6.022;2022-09-12T00:16:07;12.93;;;9.60;;
70725;SDS011;58304;53.104;6.022;2022-09-12T00:18:39;13.23;;;9.48;;
70725;SDS011;58304;53.104;6.022;2022-09-12T00:21:05;15.00;;;10.20;;
70725;SDS011;58304;53.104;6.022;2022-09-12T00:23:31;13.07;;;10.02;;
70725;SDS011;58304;53.104;6.022;2022-09-12T00:25:57;14.02;;;9.77;;
70725;SDS011;58304;53.104;6.022;2022-09-12T00:28:23;14.57;;;9.35;;
70725;SDS011;58304;53.104;6.022;2022-09-12T00:30:48;12.68;;;9.50;;
70725;SDS011;58304;53.104;6.022;2022-09-12T00:33:15;12.25;;;8.93;;
70725;SDS011;58304;53.104;6.022;2022-09-12T00:35:46;11.15;;;8.52;;
70725;SDS011;58304;53.104;6.022;2022-09-12T00:38:13;12.05;;;7.82;;
70725;SDS011;58304;53.104;6.022;2022-09-12T00:40:41;10.45;;;7.93;;
70725;SDS011;58304;53.104;6.022;2022-09-12T00:43:50;11.00;;;7.57;;
70725;SDS011;58304;53.104;6.022;2022-09-12T00:46:05;11.07;;;8.35;;
70725;SDS011;58304;53.104;6.022;2022-09-12T00:48:51;12.25;;;8.93;;
70725;SDS011;58304;53.104;6.022;2022-09-12T00:51:40;11.32;;;8.98;;
70725;SDS011;58304;53.104;6.022;2022-09-12T00:54:31;13.50;;;8.90;;
70725;SDS011;58304;53.104;6.022;2022-09-12T00:57:03;12.95;;;9.40;;
70725;SDS011;58304;53.104;6.022;2022-09-12T00:59:49;11.57;;;8.98;;
70725;SDS011;58304;53.104;6.022;2022-09-12T01:02:20;11.93;;;8.35;;
70725;SDS011;58304;53.104;6.022;2022-09-12T01:04:46;10.57;;;7.47;;
70725;SDS011;58304;53.104;6.022;2022-09-12T01:07:11;13.40;;;8.95;;
70725;SDS011;58304;53.104;6.022;2022-09-12T01:09:39;12.32;;;8.48;;
70725;SDS011;58304;53.104;6.022;2022-09-12T01:12:06;12.95;;;8.18;;
70725;SDS011;58304;53.104;6.022;2022-09-12T01:14:33;12.05;;;8.55;;
70725;SDS011;58304;53.104;6.022;2022-09-12T01:16:59;11.23;;;8.18;;
70725;SDS011;58304;53.104;6.022;2022-09-12T01:19:37;11.40;;;8.23;;
70725;SDS011;58304;53.104;6.022;2022-09-12T01:22:36;10.52;;;7.25;;
70725;SDS011;58304;53.104;6.022;2022-09-12T01:25:22;10.15;;;7.43;;
70725;SDS011;58304;53.104;6.022;2022-09-12T01:31:23;9.50;;;6.70;;
70725;SDS011;58304;53.104;6.022;2022-09-12T01:33:59;10.50;;;7.32;;
70725;SDS011;58304;53.104;6.022;2022-09-12T01:36:40;12.73;;;7.88;;
70725;SDS011;58304;53.104;6.022;2022-09-12T01:39:19;10.57;;;7.88;;
70725;SDS011;58304;53.104;6.022;2022-09-12T01:47:10;13.63;;;8.65;;
70725;SDS011;58304;53.104;6.022;2022-09-12T01:52:53;12.32;;;8.45;;
70725;SDS011;58304;53.104;6.022;2022-09-12T01:55:31;14.02;;;8.40;;
70725;SDS011;58304;53.104;6.022;2022-09-12T01:58:07;13.13;;;8.40;;
70725;SDS011;58304;53.104;6.022;2022-09-12T02:00:40;12.65;;;9.00;;
70725;SDS011;58304;53.104;6.022;2022-09-12T02:03:25;13.05;;;8.93;;
70725;SDS011;58304;53.104;6.022;2022-09-12T02:06:08;12.25;;;8.85;;
70725;SDS011;58304;53.104;6.022;2022-09-12T02:08:48;13.07;;;9.07;;
70725;SDS011;58304;53.104;6.022;2022-09-12T02:11:18;12.00;;;8.90;;
70725;SDS011;58304;53.104;6.022;2022-09-12T02:16:24;13.70;;;9.15;;
70725;SDS011;58304;53.104;6.022;2022-09-12T02:19:00;14.25;;;9.50;;
70725;SDS011;58304;53.104;6.022;2022-09-12T02:21:32;13.48;;;8.85;;
70725;SDS011;58304;53.104;6.022;2022-09-12T02:24:04;13.52;;;9.50;;
70725;SDS011;58304;53.104;6.022;2022-09-12T02:26:35;13.05;;;9.18;;
70725;SDS011;58304;53.104;6.022;2022-09-12T02:29:07;13.32;;;9.70;;
70725;SDS011;58304;53.104;6.022;2022-09-12T02:31:46;14.43;;;9.80;;
70725;SDS011;58304;53.104;6.022;2022-09-12T02:37:02;13.63;;;9.30;;
70725;SDS011;58304;53.104;6.022;2022-09-12T02:39:34;12.15;;;8.45;;
70725;SDS011;58304;53.104;6.022;2022-09-12T02:42:00;16.08;;;9.57;;
70725;SDS011;58304;53.104;6.022;2022-09-12T02:44:28;13.73;;;9.60;;
70725;SDS011;58304;53.104;6.022;2022-09-12T02:46:55;14.95;;;10.18;;
70725;SDS011;58304;53.104;6.022;2022-09-12T02:49:32;14.85;;;9.55;;
70725;SDS011;58304;53.104;6.022;2022-09-12T02:51:58;14.95;;;9.45;;
70725;SDS011;58304;53.104;6.022;2022-09-12T02:54:25;13.77;;;9.55;;
70725;SDS011;58304;53.104;6.022;2022-09-12T02:56:51;13.63;;;8.98;;
70725;SDS011;58304;53.104;6.022;2022-09-12T02:59:18;13.77;;;8.93;;
70725;SDS011;58304;53.104;6.022;2022-09-12T03:04:33;14.85;;;10.02;;
70725;SDS011;58304;53.104;6.022;2022-09-12T03:07:13;16.27;;;10.60;;
70725;SDS011;58304;53.104;6.022;2022-09-12T03:12:32;16.98;;;10.25;;
70725;SDS011;58304;53.104;6.022;2022-09-12T03:18:05;16.50;;;10.88;;
70725;SDS011;58304;53.104;6.022;2022-09-12T03:23:23;16.27;;;10.75;;
70725;SDS011;58304;53.104;6.022;2022-09-12T03:25:56;16.58;;;10.65;;
70725;SDS011;58304;53.104;6.022;2022-09-12T03:28:27;15.98;;;10.40;;
70725;SDS011;58304;53.104;6.022;2022-09-12T03:30:54;17.05;;;10.57;;
70725;SDS011;58304;53.104;6.022;2022-09-12T03:33:21;18.45;;;11.18;;
70725;SDS011;58304;53.104;6.022;2022-09-12T03:35:48;19.40;;;12.48;;
70725;SDS011;58304;53.104;6.022;2022-09-12T03:38:15;19.65;;;12.50;;
70725;SDS011;58304;53.104;6.022;2022-09-12T03:40:41;20.02;;;12.45;;
70725;SDS011;58304;53.104;6.022;2022-09-12T03:43:07;20.15;;;12.70;;
70725;SDS011;58304;53.104;6.022;2022-09-12T03:45:34;19.67;;;12.35;;
70725;SDS011;58304;53.104;6.022;2022-09-12T03:48:00;21.92;;;12.50;;
70725;SDS011;58304;53.104;6.022;2022-09-12T03:50:25;23.23;;;13.10;;
70725;SDS011;58304;53.104;6.022;2022-09-12T03:52:51;19.98;;;12.77;;
70725;SDS011;58304;53.104;6.022;2022-09-12T03:55:17;21.77;;;13.65;;
70725;SDS011;58304;53.104;6.022;2022-09-12T03:57:43;25.10;;;13.65;;
70725;SDS011;58304;53.104;6.022;2022-09-12T04:00:08;21.55;;;13.27;;
70725;SDS011;58304;53.104;6.022;2022-09-12T04:02:35;22.27;;;13.95;;
70725;SDS011;58304;53.104;6.022;2022-09-12T04:05:00;23.50;;;14.02;;
70725;SDS011;58304;53.104;6.022;2022-09-12T04:07:26;22.33;;;13.82;;
70725;SDS011;58304;53.104;6.022;2022-09-12T04:09:52;23.23;;;13.73;;
70725;SDS011;58304;53.104;6.022;2022-09-12T04:12:18;18.95;;;12.88;;
70725;SDS011;58304;53.104;6.022;2022-09-12T04:14:44;22.55;;;13.80;;
70725;SDS011;58304;53.104;6.022;2022-09-12T04:17:09;23.17;;;14.82;;
70725;SDS011;58304;53.104;6.022;2022-09-12T04:19:35;20.35;;;13.40;;
70725;SDS011;58304;53.104;6.022;2022-09-12T04:22:01;23.27;;;13.77;;
70725;SDS011;58304;53.104;6.022;2022-09-12T04:24:26;25.73;;;14.18;;
70725;SDS011;58304;53.104;6.022;2022-09-12T04:26:52;23.10;;;14.27;;
70725;SDS011;58304;53.104;6.022;2022-09-12T04:29:17;21.48;;;14.15;;
70725;SDS011;58304;53.104;6.022;2022-09-12T04:31:43;22.98;;;14.48;;
70725;SDS011;58304;53.104;6.022;2022-09-12T04:34:09;22.25;;;13.93;;
70725;SDS011;58304;53.104;6.022;2022-09-12T04:36:35;22.15;;;14.15;;
70725;SDS011;58304;53.104;6.022;2022-09-12T04:39:01;23.67;;;13.77;;
70725;SDS011;58304;53.104;6.022;2022-09-12T04:41:28;24.95;;;15.20;;
70725;SDS011;58304;53.104;6.022;2022-09-12T04:44:00;24.55;;;15.02;;
70725;SDS011;58304;53.104;6.022;2022-09-12T04:46:29;26.70;;;14.63;;
70725;SDS011;58304;53.104;6.022;2022-09-12T04:48:56;24.55;;;14.32;;
70725;SDS011;58304;53.104;6.022;2022-09-12T04:51:26;22.92;;;13.90;;
70725;SDS011;58304;53.104;6.022;2022-09-12T04:53:57;21.85;;;13.48;;
70725;SDS011;58304;53.104;6.022;2022-09-12T04:56:25;19.15;;;12.75;;
70725;SDS011;58304;53.104;6.022;2022-09-12T04:58:51;23.52;;;13.93;;
70725;SDS011;58304;53.104;6.022;2022-09-12T05:01:17;22.67;;;14.10;;
70725;SDS011;58304;53.104;6.022;2022-09-12T05:03:45;22.63;;;14.07;;
70725;SDS011;58304;53.104;6.022;2022-09-12T05:06:20;22.45;;;13.20;;
70725;SDS011;58304;53.104;6.022;2022-09-12T05:08:48;21.20;;;13.25;;
70725;SDS011;58304;53.104;6.022;2022-09-12T05:11:15;20.67;;;13.32;;
70725;SDS011;58304;53.104;6.022;2022-09-12T05:13:44;22.15;;;13.55;;
70725;SDS011;58304;53.104;6.022;2022-09-12T05:16:10;22.67;;;13.43;;
70725;SDS011;58304;53.104;6.022;2022-09-12T05:18:39;22.42;;;13.55;;
70725;SDS011;58304;53.104;6.022;2022-09-12T05:21:05;22.67;;;13.38;;
70725;SDS011;58304;53.104;6.022;2022-09-12T05:23:33;22.20;;;13.30;;
70725;SDS011;58304;53.104;6.022;2022-09-12T05:25:59;25.30;;;14.23;;
70725;SDS011;58304;53.104;6.022;2022-09-12T05:28:30;20.73;;;13.07;;
70725;SDS011;58304;53.104;6.022;2022-09-12T05:31:11;22.60;;;13.77;;
70725;SDS011;58304;53.104;6.022;2022-09-12T05:33:39;22.40;;;14.15;;
70725;SDS011;58304;53.104;6.022;2022-09-12T05:36:08;25.42;;;15.52;;
70725;SDS011;58304;53.104;6.022;2022-09-12T05:38:52;25.98;;;14.98;;
70725;SDS011;58304;53.104;6.022;2022-09-12T05:41:19;25.52;;;14.75;;
70725;SDS011;58304;53.104;6.022;2022-09-12T05:43:46;26.92;;;15.18;;
70725;SDS011;58304;53.104;6.022;2022-09-12T05:46:15;26.25;;;15.00;;
70725;SDS011;58304;53.104;6.022;2022-09-12T05:48:45;28.30;;;16.38;;
70725;SDS011;58304;53.104;6.022;2022-09-12T05:51:12;29.33;;;16.73;;
70725;SDS011;58304;53.104;6.022;2022-09-12T05:53:43;29.95;;;15.63;;
70725;SDS011;58304;53.104;6.022;2022-09-12T05:56:11;28.65;;;15.77;;
70725;SDS011;58304;53.104;6.022;2022-09-12T05:58:39;27.05;;;15.82;;
70725;SDS011;58304;53.104;6.022;2022-09-12T06:01:08;26.77;;;14.73;;
70725;SDS011;58304;53.104;6.022;2022-09-12T06:03:41;25.35;;;14.88;;
70725;SDS011;58304;53.104;6.022;2022-09-12T06:06:09;24.55;;;14.45;;
70725;SDS011;58304;53.104;6.022;2022-09-12T06:08:38;27.25;;;15.40;;
70725;SDS011;58304;53.104;6.022;2022-09-12T06:11:06;27.33;;;16.05;;
70725;SDS011;58304;53.104;6.022;2022-09-12T06:13:34;25.13;;;14.68;;
70725;SDS011;58304;53.104;6.022;2022-09-12T06:16:16;25.85;;;15.27;;
70725;SDS011;58304;53.104;6.022;2022-09-12T06:18:50;28.77;;;15.02;;
70725;SDS011;58304;53.104;6.022;2022-09-12T06:21:18;29.13;;;16.67;;
70725;SDS011;58304;53.104;6.022;2022-09-12T06:23:44;31.98;;;17.52;;
70725;SDS011;58304;53.104;6.022;2022-09-12T06:26:12;32.40;;;17.80;;
70725;SDS011;58304;53.104;6.022;2022-09-12T06:28:40;31.80;;;18.13;;
70725;SDS011;58304;53.104;6.022;2022-09-12T06:31:07;34.20;;;18.25;;
70725;SDS011;58304;53.104;6.022;2022-09-12T06:33:35;32.00;;;17.90;;
70725;SDS011;58304;53.104;6.022;2022-09-12T06:36:03;38.92;;;19.42;;
70725;SDS011;58304;53.104;6.022;2022-09-12T06:38:29;37.30;;;19.70;;
70725;SDS011;58304;53.104;6.022;2022-09-12T06:40:55;35.13;;;19.10;;
70725;SDS011;58304;53.104;6.022;2022-09-12T06:43:22;34.80;;;19.10;;
70725;SDS011;58304;53.104;6.022;2022-09-12T06:45:48;35.20;;;19.35;;
70725;SDS011;58304;53.104;6.022;2022-09-12T06:48:14;37.08;;;19.67;;
70725;SDS011;58304;53.104;6.022;2022-09-12T06:50:39;36.90;;;19.25;;
70725;SDS011;58304;53.104;6.022;2022-09-12T06:53:05;35.88;;;19.27;;
70725;SDS011;58304;53.104;6.022;2022-09-12T06:55:31;36.85;;;18.27;;
70725;SDS011;58304;53.104;6.022;2022-09-12T06:57:57;35.47;;;19.05;;
70725;SDS011;58304;53.104;6.022;2022-09-12T07:00:23;37.33;;;18.80;;
70725;SDS011;58304;53.104;6.022;2022-09-12T07:02:53;37.92;;;20.38;;
70725;SDS011;58304;53.104;6.022;2022-09-12T07:05:20;40.20;;;20.75;;
70725;SDS011;58304;53.104;6.022;2022-09-12T07:07:46;41.80;;;21.35;;
70725;SDS011;58304;53.104;6.022;2022-09-12T07:10:12;40.55;;;20.77;;
70725;SDS011;58304;53.104;6.022;2022-09-12T07:12:37;38.97;;;20.67;;
70725;SDS011;58304;53.104;6.022;2022-09-12T07:15:03;39.28;;;20.65;;
70725;SDS011;58304;53.104;6.022;2022-09-12T07:17:29;39.03;;;20.42;;
70725;SDS011;58304;53.104;6.022;2022-09-12T07:19:55;39.00;;;20.80;;
70725;SDS011;58304;53.104;6.022;2022-09-12T07:22:20;40.47;;;20.63;;
70725;SDS011;58304;53.104;6.022;2022-09-12T07:24:46;44.88;;;22.52;;
70725;SDS011;58304;53.104;6.022;2022-09-12T07:27:12;39.17;;;20.95;;
70725;SDS011;58304;53.104;6.022;2022-09-12T07:29:38;47.85;;;22.55;;
70725;SDS011;58304;53.104;6.022;2022-09-12T07:32:04;44.70;;;22.35;;
70725;SDS011;58304;53.104;6.022;2022-09-12T07:34:30;42.47;;;22.55;;
70725;SDS011;58304;53.104;6.022;2022-09-12T07:36:55;42.97;;;21.83;;
70725;SDS011;58304;53.104;6.022;2022-09-12T07:39:22;41.30;;;22.10;;
70725;SDS011;58304;53.104;6.022;2022-09-12T07:41:47;44.05;;;23.13;;
70725;SDS011;58304;53.104;6.022;2022-09-12T07:44:13;45.17;;;22.05;;
70725;SDS011;58304;53.104;6.022;2022-09-12T07:46:40;41.67;;;21.52;;
70725;SDS011;58304;53.104;6.022;2022-09-12T07:49:05;43.63;;;22.25;;
70725;SDS011;58304;53.104;6.022;2022-09-12T07:51:31;44.35;;;21.45;;
70725;SDS011;58304;53.104;6.022;2022-09-12T07:53:57;43.72;;;22.23;;
70725;SDS011;58304;53.104;6.022;2022-09-12T07:56:23;42.25;;;20.98;;
70725;SDS011;58304;53.104;6.022;2022-09-12T07:58:51;40.90;;;21.42;;
70725;SDS011;58304;53.104;6.022;2022-09-12T08:01:17;44.92;;;22.10;;
70725;SDS011;58304;53.104;6.022;2022-09-12T08:03:46;44.78;;;21.92;;
70725;SDS011;58304;53.104;6.022;2022-09-12T08:06:16;43.35;;;22.38;;
70725;SDS011;58304;53.104;6.022;2022-09-12T08:08:48;43.53;;;22.85;;
70725;SDS011;58304;53.104;6.022;2022-09-12T08:11:15;45.88;;;22.55;;
70725;SDS011;58304;53.104;6.022;2022-09-12T08:13:42;46.63;;;24.10;;
70725;SDS011;58304;53.104;6.022;2022-09-12T08:16:15;48.30;;;24.48;;
70725;SDS011;58304;53.104;6.022;2022-09-12T08:18:46;50.00;;;24.88;;
70725;SDS011;58304;53.104;6.022;2022-09-12T08:21:13;46.88;;;24.13;;
70725;SDS011;58304;53.104;6.022;2022-09-12T08:23:43;50.90;;;25.17;;
70725;SDS011;58304;53.104;6.022;2022-09-12T08:26:10;48.00;;;25.05;;
70725;SDS011;58304;53.104;6.022;2022-09-12T08:28:37;43.97;;;24.63;;
70725;SDS011;58304;53.104;6.022;2022-09-12T08:31:09;43.10;;;23.58;;
70725;SDS011;58304;53.104;6.022;2022-09-12T08:33:37;50.72;;;26.13;;
70725;SDS011;58304;53.104;6.022;2022-09-12T08:36:03;46.47;;;24.67;;
70725;SDS011;58304;53.104;6.022;2022-09-12T08:38:37;50.80;;;25.92;;
70725;SDS011;58304;53.104;6.022;2022-09-12T08:47:09;47.65;;;25.50;;
70725;SDS011;58304;53.104;6.022;2022-09-12T08:49:50;44.35;;;24.90;;
70725;SDS011;58304;53.104;6.022;2022-09-12T08:52:24;47.40;;;25.38;;
70725;SDS011;58304;53.104;6.022;2022-09-12T08:55:04;51.85;;;25.50;;
70725;SDS011;58304;53.104;6.022;2022-09-12T08:57:34;46.15;;;24.65;;
70725;SDS011;58304;53.104;6.022;2022-09-12T09:00:02;45.70;;;24.85;;
70725;SDS011;58304;53.104;6.022;2022-09-12T09:02:39;48.15;;;25.63;;
70725;SDS011;58304;53.104;6.022;2022-09-12T09:05:41;50.58;;;26.30;;
70725;SDS011;58304;53.104;6.022;2022-09-12T09:17:14;48.57;;;25.30;;
70725;SDS011;58304;53.104;6.022;2022-09-12T09:20:21;44.65;;;24.13;;
70725;SDS011;58304;53.104;6.022;2022-09-12T09:33:33;42.85;;;21.27;;
70725;SDS011;58304;53.104;6.022;2022-09-12T09:36:01;43.00;;;22.30;;
70725;SDS011;58304;53.104;6.022;2022-09-12T09:41:37;41.70;;;22.58;;
70725;SDS011;58304;53.104;6.022;2022-09-12T09:44:27;37.05;;;20.42;;
70725;SDS011;58304;53.104;6.022;2022-09-12T09:46:54;34.00;;;19.05;;
70725;SDS011;58304;53.104;6.022;2022-09-12T09:49:22;31.95;;;18.45;;
70725;SDS011;58304;53.104;6.022;2022-09-12T09:51:49;30.33;;;17.85;;
70725;SDS011;58304;53.104;6.022;2022-09-12T09:54:22;25.05;;;14.93;;
70725;SDS011;58304;53.104;6.022;2022-09-12T09:56:50;23.70;;;13.73;;
70725;SDS011;58304;53.104;6.022;2022-09-12T09:59:26;28.23;;;16.35;;
70725;SDS011;58304;53.104;6.022;2022-09-12T10:01:58;25.75;;;14.98;;
70725;SDS011;58304;53.104;6.022;2022-09-12T10:04:34;25.27;;;14.87;;
70725;SDS011;58304;53.104;6.022;2022-09-12T10:07:03;22.15;;;13.05;;
70725;SDS011;58304;53.104;6.022;2022-09-12T10:09:33;20.25;;;10.95;;
70725;SDS011;58304;53.104;6.022;2022-09-12T10:12:01;19.17;;;11.75;;
70725;SDS011;58304;53.104;6.022;2022-09-12T10:14:58;22.70;;;13.10;;
70725;SDS011;58304;53.104;6.022;2022-09-12T10:17:29;19.77;;;12.60;;
70725;SDS011;58304;53.104;6.022;2022-09-12T10:20:03;18.52;;;11.48;;
70725;SDS011;58304;53.104;6.022;2022-09-12T10:22:29;20.00;;;11.88;;
70725;SDS011;58304;53.104;6.022;2022-09-12T10:24:56;19.75;;;12.50;;
70725;SDS011;58304;53.104;6.022;2022-09-12T10:27:25;19.17;;;11.73;;
70725;SDS011;58304;53.104;6.022;2022-09-12T10:32:39;18.08;;;11.70;;
70725;SDS011;58304;53.104;6.022;2022-09-12T10:35:15;20.92;;;12.38;;
70725;SDS011;58304;53.104;6.022;2022-09-12T10:37:54;16.65;;;10.13;;
70725;SDS011;58304;53.104;6.022;2022-09-12T10:40:27;16.45;;;9.90;;
70725;SDS011;58304;53.104;6.022;2022-09-12T10:42:56;14.57;;;9.43;;
70725;SDS011;58304;53.104;6.022;2022-09-12T10:45:24;14.02;;;8.43;;
70725;SDS011;58304;53.104;6.022;2022-09-12T10:48:00;12.75;;;8.38;;
70725;SDS011;58304;53.104;6.022;2022-09-12T10:50:39;13.43;;;8.15;;
70725;SDS011;58304;53.104;6.022;2022-09-12T10:53:13;14.15;;;8.02;;
70725;SDS011;58304;53.104;6.022;2022-09-12T10:55:57;13.02;;;7.95;;
70725;SDS011;58304;53.104;6.022;2022-09-12T10:58:35;15.20;;;8.40;;
70725;SDS011;58304;53.104;6.022;2022-09-12T11:01:12;11.50;;;7.13;;
70725;SDS011;58304;53.104;6.022;2022-09-12T11:06:29;12.02;;;7.45;;
70725;SDS011;58304;53.104;6.022;2022-09-12T11:09:16;14.27;;;8.63;;
70725;SDS011;58304;53.104;6.022;2022-09-12T11:16:54;14.98;;;8.95;;
70725;SDS011;58304;53.104;6.022;2022-09-12T11:30:10;17.95;;;10.80;;
70725;SDS011;58304;53.104;6.022;2022-09-12T11:32:48;18.90;;;11.20;;
70725;SDS011;58304;53.104;6.022;2022-09-12T11:35:32;14.85;;;8.68;;
70725;SDS011;58304;53.104;6.022;2022-09-12T11:38:16;15.05;;;8.25;;
70725;SDS011;58304;53.104;6.022;2022-09-12T11:41:17;13.82;;;8.10;;
70725;SDS011;58304;53.104;6.022;2022-09-12T11:43:55;13.45;;;8.57;;
70725;SDS011;58304;53.104;6.022;2022-09-12T11:46:35;15.30;;;8.98;;
70725;SDS011;58304;53.104;6.022;2022-09-12T11:56:47;14.75;;;9.55;;
70725;SDS011;58304;53.104;6.022;2022-09-12T12:00:03;15.70;;;8.90;;
70725;SDS011;58304;53.104;6.022;2022-09-12T12:02:32;13.43;;;7.70;;
70725;SDS011;58304;53.104;6.022;2022-09-12T12:10:23;8.10;;;5.30;;
70725;SDS011;58304;53.104;6.022;2022-09-12T12:13:05;11.35;;;6.82;;
70725;SDS011;58304;53.104;6.022;2022-09-12T12:15:49;10.38;;;6.40;;
70725;SDS011;58304;53.104;6.022;2022-09-12T12:18:20;9.05;;;5.93;;
70725;SDS011;58304;53.104;6.022;2022-09-12T12:20:49;12.15;;;7.18;;
70725;SDS011;58304;53.104;6.022;2022-09-12T12:23:25;11.63;;;7.13;;
70725;SDS011;58304;53.104;6.022;2022-09-12T12:25:56;9.43;;;6.15;;
70725;SDS011;58304;53.104;6.022;2022-09-12T12:28:54;10.60;;;6.70;;
70725;SDS011;58304;53.104;6.022;2022-09-12T12:31:22;8.18;;;5.00;;
70725;SDS011;58304;53.104;6.022;2022-09-12T12:36:29;7.22;;;4.80;;
70725;SDS011;58304;53.104;6.022;2022-09-12T12:39:02;9.63;;;3.75;;
70725;SDS011;58304;53.104;6.022;2022-09-12T12:42:00;9.13;;;5.90;;
70725;SDS011;58304;53.104;6.022;2022-09-12T12:45:09;10.07;;;5.72;;
70725;SDS011;58304;53.104;6.022;2022-09-12T12:47:19;10.45;;;6.00;;
70725;SDS011;58304;53.104;6.022;2022-09-12T13:03:30;9.15;;;6.28;;
70725;SDS011;58304;53.104;6.022;2022-09-12T13:06:02;7.82;;;5.20;;
70725;SDS011;58304;53.104;6.022;2022-09-12T13:08:32;7.90;;;5.18;;
70725;SDS011;58304;53.104;6.022;2022-09-12T13:11:15;7.95;;;5.22;;
70725;SDS011;58304;53.104;6.022;2022-09-12T13:16:31;8.90;;;5.05;;
70725;SDS011;58304;53.104;6.022;2022-09-12T13:19:32;8.25;;;4.88;;
70725;SDS011;58304;53.104;6.022;2022-09-12T13:22:03;6.53;;;3.97;;
70725;SDS011;58304;53.104;6.022;2022-09-12T13:24:31;5.72;;;3.90;;
70725;SDS011;58304;53.104;6.022;2022-09-12T13:26:58;7.85;;;5.07;;
70725;SDS011;58304;53.104;6.022;2022-09-12T13:29:25;8.00;;;5.03;;
70725;SDS011;58304;53.104;6.022;2022-09-12T13:31:53;9.05;;;4.80;;
70725;SDS011;58304;53.104;6.022;2022-09-12T13:34:24;10.52;;;6.10;;
70725;SDS011;58304;53.104;6.022;2022-09-12T13:37:18;10.05;;;4.95;;
70725;SDS011;58304;53.104;6.022;2022-09-12T13:40:00;11.80;;;5.50;;
70725;SDS011;58304;53.104;6.022;2022-09-12T13:42:36;8.43;;;4.65;;
70725;SDS011;58304;53.104;6.022;2022-09-12T13:45:14;9.45;;;5.60;;
70725;SDS011;58304;53.104;6.022;2022-09-12T13:47:56;8.45;;;5.40;;
70725;SDS011;58304;53.104;6.022;2022-09-12T13:50:29;10.68;;;5.38;;
70725;SDS011;58304;53.104;6.022;2022-09-12T13:53:06;8.88;;;4.50;;
70725;SDS011;58304;53.104;6.022;2022-09-12T13:55:41;6.68;;;4.20;;
70725;SDS011;58304;53.104;6.022;2022-09-12T13:58:15;7.28;;;4.40;;
70725;SDS011;58304;53.104;6.022;2022-09-12T14:06:45;9.10;;;4.82;;
70725;SDS011;58304;53.104;6.022;2022-09-12T14:09:21;7.85;;;5.38;;
70725;SDS011;58304;53.104;6.022;2022-09-12T14:11:53;7.45;;;4.93;;
70725;SDS011;58304;53.104;6.022;2022-09-12T14:14:41;7.43;;;5.18;;
70725;SDS011;58304;53.104;6.022;2022-09-12T14:17:46;10.95;;;5.90;;
70725;SDS011;58304;53.104;6.022;2022-09-12T14:20:02;7.95;;;4.32;;
70725;SDS011;58304;53.104;6.022;2022-09-12T14:22:31;8.88;;;5.25;;
70725;SDS011;58304;53.104;6.022;2022-09-12T14:24:58;7.10;;;4.28;;
70725;SDS011;58304;53.104;6.022;2022-09-12T14:27:31;6.57;;;4.18;;
70725;SDS011;58304;53.104;6.022;2022-09-12T14:30:13;5.70;;;4.00;;
70725;SDS011;58304;53.104;6.022;2022-09-12T14:33:01;6.95;;;4.38;;
70725;SDS011;58304;53.104;6.022;2022-09-12T14:35:41;9.80;;;5.00;;
70725;SDS011;58304;53.104;6.022;2022-09-12T14:38:12;6.07;;;4.10;;
70725;SDS011;58304;53.104;6.022;2022-09-12T14:41:00;4.43;;;3.40;;
70725;SDS011;58304;53.104;6.022;2022-09-12T14:43:29;4.93;;;3.45;;
70725;SDS011;58304;53.104;6.022;2022-09-12T14:46:06;5.18;;;3.40;;
70725;SDS011;58304;53.104;6.022;2022-09-12T14:48:48;4.80;;;2.88;;
70725;SDS011;58304;53.104;6.022;2022-09-12T14:51:17;4.63;;;2.95;;
70725;SDS011;58304;53.104;6.022;2022-09-12T15:00:15;4.38;;;2.85;;
70725;SDS011;58304;53.104;6.022;2022-09-12T15:03:35;6.22;;;3.25;;
70725;SDS011;58304;53.104;6.022;2022-09-12T15:06:38;6.68;;;4.28;;
70725;SDS011;58304;53.104;6.022;2022-09-12T15:09:06;8.88;;;4.97;;
70725;SDS011;58304;53.104;6.022;2022-09-12T15:11:36;7.07;;;5.25;;
70725;SDS011;58304;53.104;6.022;2022-09-12T15:14:14;9.65;;;6.03;;
70725;SDS011;58304;53.104;6.022;2022-09-12T15:16:46;12.48;;;6.22;;
70725;SDS011;58304;53.104;6.022;2022-09-12T15:19:12;9.05;;;5.80;;
70725;SDS011;58304;53.104;6.022;2022-09-12T15:21:39;13.63;;;6.15;;
70725;SDS011;58304;53.104;6.022;2022-09-12T15:24:14;10.57;;;5.40;;
70725;SDS011;58304;53.104;6.022;2022-09-12T15:26:41;8.52;;;5.75;;
70725;SDS011;58304;53.104;6.022;2022-09-12T15:29:07;8.15;;;5.22;;
70725;SDS011;58304;53.104;6.022;2022-09-12T15:31:33;9.88;;;5.15;;
70725;SDS011;58304;53.104;6.022;2022-09-12T15:33:59;8.65;;;5.30;;
70725;SDS011;58304;53.104;6.022;2022-09-12T15:36:32;9.27;;;6.00;;
70725;SDS011;58304;53.104;6.022;2022-09-12T15:39:13;9.43;;;6.07;;
70725;SDS011;58304;53.104;6.022;2022-09-12T15:41:42;8.70;;;5.85;;
70725;SDS011;58304;53.104;6.022;2022-09-12T15:44:11;9.00;;;6.07;;
70725;SDS011;58304;53.104;6.022;2022-09-12T15:46:37;8.40;;;6.03;;
70725;SDS011;58304;53.104;6.022;2022-09-12T15:49:06;10.77;;;6.55;;
70725;SDS011;58304;53.104;6.022;2022-09-12T15:51:35;10.30;;;5.88;;
70725;SDS011;58304;53.104;6.022;2022-09-12T16:00:15;10.68;;;6.20;;
70725;SDS011;58304;53.104;6.022;2022-09-12T16:03:23;9.50;;;6.25;;
70725;SDS011;58304;53.104;6.022;2022-09-12T16:06:01;11.57;;;6.15;;
70725;SDS011;58304;53.104;6.022;2022-09-12T16:08:29;8.90;;;6.45;;
70725;SDS011;58304;53.104;6.022;2022-09-12T16:11:08;10.38;;;5.45;;
70725;SDS011;58304;53.104;6.022;2022-09-12T16:13:44;7.90;;;5.70;;
70725;SDS011;58304;53.104;6.022;2022-09-12T16:16:20;9.48;;;6.05;;
70725;SDS011;58304;53.104;6.022;2022-09-12T16:18:48;11.18;;;6.40;;
70725;SDS011;58304;53.104;6.022;2022-09-12T16:21:30;8.23;;;6.03;;
70725;SDS011;58304;53.104;6.022;2022-09-12T16:24:00;10.63;;;6.65;;
70725;SDS011;58304;53.104;6.022;2022-09-12T16:26:26;10.15;;;6.65;;
70725;SDS011;58304;53.104;6.022;2022-09-12T16:28:58;9.90;;;6.30;;
70725;SDS011;58304;53.104;6.022;2022-09-12T16:31:27;9.98;;;7.28;;
70725;SDS011;58304;53.104;6.022;2022-09-12T16:33:56;10.73;;;6.78;;
70725;SDS011;58304;53.104;6.022;2022-09-12T16:36:21;9.95;;;6.45;;
70725;SDS011;58304;53.104;6.022;2022-09-12T16:39:02;12.85;;;6.50;;
70725;SDS011;58304;53.104;6.022;2022-09-12T16:41:31;9.50;;;6.13;;
70725;SDS011;58304;53.104;6.022;2022-09-12T16:43:57;9.48;;;6.65;;
70725;SDS011;58304;53.104;6.022;2022-09-12T16:46:28;11.35;;;6.90;;
70725;SDS011;58304;53.104;6.022;2022-09-12T16:48:54;10.02;;;6.75;;
70725;SDS011;58304;53.104;6.022;2022-09-12T16:51:31;10.18;;;6.28;;
70725;SDS011;58304;53.104;6.022;2022-09-12T16:54:00;10.38;;;6.68;;
70725;SDS011;58304;53.104;6.022;2022-09-12T16:56:31;9.18;;;6.65;;
70725;SDS011;58304;53.104;6.022;2022-09-12T16:59:05;21.45;;;7.30;;
70725;SDS011;58304;53.104;6.022;2022-09-12T17:01:42;11.73;;;7.05;;
70725;SDS011;58304;53.104;6.022;2022-09-12T17:04:16;13.90;;;7.90;;
70725;SDS011;58304;53.104;6.022;2022-09-12T17:06:42;12.00;;;6.97;;
70725;SDS011;58304;53.104;6.022;2022-09-12T17:09:09;14.63;;;7.47;;